Аэропорт: Гродно. Гродно

ICAO: UMMG

METAR:
Информация по данной станции не доступна
METAR:
2019-07-23 14:05:00
TAF UMMG 231405Z 2315/2324 33005G10MPS 9999 BKN020 TEMPO 2315/2319 35007G12MPS 3000 -TSRA BKN010CB